Can Warship 707 — CGBV — position and weather

sailwx.info

Track history (hours):
 
Tides and Currents Weather Stations Pressure Air Temp Water Temp Dewpoint Dewpoint Depression Visibility Wind Speed Wind Dir Waves Ship Positions

Can Warship 707

Last reported at 2015-Jul-18 17:28 UTC. Time now 2015-Jul-30 18:14 UTC.
Position N 44°39' W 063°35'.
Warning: this ship's position is 12 days out of date.

Length 55 m; draft 5 m.

Type: Military. MMSI: 316200000.

Date/timePositionNaut miles runAvg speedWind from/ knotsBaromVisibWave heightAir tempDewpointWater temp
2015-Jul-18 17:28N 44°39' W 063°35'6 7.1
2015-Jul-18 16:33N 44°33' W 063°31'28 3.7
2015-Jul-18 09:05N 44°14' W 063°58'1 1.4
2015-Jul-18 08:03N 44°13' W 063°59'  
2015-Jul-10 12:27N 44°39' W 063°35'2 2.0
2015-Jul-10 11:33N 44°41' W 063°36'2 1.9
2015-Jul-10 10:24N 44°42' W 063°38'0 0.0
2015-Jul-10 09:27N 44°42' W 063°38'0 0.0
2015-Jul-10 08:24N 44°42' W 063°38'0 0.0
2015-Jul-10 07:27N 44°42' W 063°38'0 0.0
2015-Jul-10 06:30N 44°42' W 063°38'0 0.0
2015-Jul-10 05:30N 44°42' W 063°38'0 0.0
2015-Jul-10 04:30N 44°42' W 063°38'0 0.0
2015-Jul-10 03:33N 44°42' W 063°38'0 0.0
2015-Jul-10 02:33N 44°42' W 063°38'0 0.0
2015-Jul-10 01:33N 44°42' W 063°38'0 0.0
2015-Jul-10 00:33N 44°42' W 063°38'0 0.0
2015-Jul-09 23:33N 44°42' W 063°38'0 0.0
2015-Jul-09 22:33N 44°42' W 063°38'0 0.0
2015-Jul-09 21:33N 44°42' W 063°38'0 0.0
2015-Jul-09 20:24N 44°42' W 063°38'0 0.0
2015-Jul-09 19:31N 44°42' W 063°38'0 0.0
2015-Jul-09 18:33N 44°42' W 063°38'0 0.0
2015-Jul-09 17:33N 44°42' W 063°38'5 5.4
2015-Jul-09 16:33N 44°38' W 063°34'1111.3
2015-Jul-09 15:33N 44°28' W 063°26'  
Track history (hours):
 
Tides and Currents Weather Stations Pressure Air Temp Water Temp Dewpoint Dewpoint Depression Visibility Wind Speed Wind Dir Waves Ship Positions

Can Warship 707

Last reported at 2015-Jul-18 17:28 UTC. Time now 2015-Jul-30 18:14 UTC.
Position N 44°39' W 063°35'.
Warning: this ship's position is 12 days out of date.

Length 55 m; draft 5 m.

Type: Military. MMSI: 316200000.

Date/timePositionNaut miles runAvg speedWind from/ knotsBaromVisibWave heightAir tempDewpointWater temp
2015-Jul-18 17:28N 44°39' W 063°35'6 7.1
2015-Jul-18 16:33N 44°33' W 063°31'28 3.7
2015-Jul-18 09:05N 44°14' W 063°58'1 1.4
2015-Jul-18 08:03N 44°13' W 063°59'  
2015-Jul-10 12:27N 44°39' W 063°35'2 2.0
2015-Jul-10 11:33N 44°41' W 063°36'2 1.9
2015-Jul-10 10:24N 44°42' W 063°38'0 0.0
2015-Jul-10 09:27N 44°42' W 063°38'0 0.0
2015-Jul-10 08:24N 44°42' W 063°38'0 0.0
2015-Jul-10 07:27N 44°42' W 063°38'0 0.0
2015-Jul-10 06:30N 44°42' W 063°38'0 0.0
2015-Jul-10 05:30N 44°42' W 063°38'0 0.0
2015-Jul-10 04:30N 44°42' W 063°38'0 0.0
2015-Jul-10 03:33N 44°42' W 063°38'0 0.0
2015-Jul-10 02:33N 44°42' W 063°38'0 0.0
2015-Jul-10 01:33N 44°42' W 063°38'0 0.0
2015-Jul-10 00:33N 44°42' W 063°38'0 0.0
2015-Jul-09 23:33N 44°42' W 063°38'0 0.0
2015-Jul-09 22:33N 44°42' W 063°38'0 0.0
2015-Jul-09 21:33N 44°42' W 063°38'0 0.0
2015-Jul-09 20:24N 44°42' W 063°38'0 0.0
2015-Jul-09 19:31N 44°42' W 063°38'0 0.0
2015-Jul-09 18:33N 44°42' W 063°38'0 0.0
2015-Jul-09 17:33N 44°42' W 063°38'5 5.4
2015-Jul-09 16:33N 44°38' W 063°34'1111.3
2015-Jul-09 15:33N 44°28' W 063°26'  

Dump ship's entire track history